Time;durP1;ratioP1;P1;durP2;ratioP2;P2;SDS_P1;SDS_P2;PMS_P1;PMS_P2;Temp;Humidity;BMP_temperature;BMP_pressure;BME280_temperature;BME280_humidity;BME280_pressure;Samples;Min_cycle;Max_cycle;Signal;HPM_P1;HPM_P2
2022/03/04 00:00:10;;;;;;;15.25;5.38;;;4.60;98.00;;;;;;5009070;28;20057;-61
2022/03/04 00:02:37;;;;;;;15.23;6.15;;;4.60;98.40;;;;;;5011132;28;20033;-61
2022/03/04 00:05:03;;;;;;;18.02;6.35;;;4.60;98.70;;;;;;5009221;28;20034;-61
2022/03/04 00:07:29;;;;;;;13.65;5.75;;;4.60;98.80;;;;;;5010984;28;20390;-62
2022/03/04 00:09:55;;;;;;;10.63;5.15;;;4.60;99.00;;;;;;5010878;28;20064;-61
2022/03/04 00:12:20;;;;;;;15.70;6.05;;;4.50;99.40;;;;;;5010492;28;20448;-61
2022/03/04 00:14:46;;;;;;;14.85;6.35;;;4.50;99.40;;;;;;5011908;28;20486;-60
2022/03/04 00:17:12;;;;;;;13.57;5.65;;;4.50;99.50;;;;;;5011184;28;20041;-61
2022/03/04 00:19:38;;;;;;;14.48;6.47;;;4.50;99.40;;;;;;5011541;28;20405;-61
2022/03/04 00:22:05;;;;;;;30.10;7.22;;;4.50;99.80;;;;;;5010804;28;20030;-62
2022/03/04 00:24:31;;;;;;;13.82;5.18;;;4.40;99.90;;;;;;5010738;28;20026;-60
2022/03/04 00:26:57;;;;;;;15.60;5.90;;;4.40;99.90;;;;;;5010264;28;20045;-60
2022/03/04 00:29:22;;;;;;;16.50;6.50;;;4.40;99.90;;;;;;5009524;28;20478;-61
2022/03/04 00:31:48;;;;;;;15.75;6.35;;;4.40;99.90;;;;;;5010419;28;20080;-61
2022/03/04 00:34:14;;;;;;;12.93;6.38;;;4.40;99.90;;;;;;5009797;28;20030;-61
2022/03/04 00:36:40;;;;;;;15.57;5.75;;;4.30;99.90;;;;;;5009633;28;20030;-62
2022/03/04 00:39:09;;;;;;;17.13;6.68;;;4.30;99.90;;;;;;5010190;28;20034;-60
2022/03/04 00:41:35;;;;;;;15.30;6.18;;;4.30;99.90;;;;;;5007566;28;20066;-60
2022/03/04 00:44:00;;;;;;;15.15;5.95;;;4.20;99.90;;;;;;5009910;28;20113;-61
2022/03/04 00:46:26;;;;;;;13.35;6.38;;;4.30;99.90;;;;;;5010414;28;20465;-61
2022/03/04 00:48:52;;;;;;;15.02;6.15;;;4.20;99.90;;;;;;5010303;28;20046;-60
2022/03/04 00:51:18;;;;;;;12.60;5.60;;;4.30;99.90;;;;;;5008646;28;20085;-62
2022/03/04 00:53:44;;;;;;;15.23;6.50;;;4.20;99.90;;;;;;5010053;28;20030;-62
2022/03/04 00:56:11;;;;;;;14.45;5.53;;;4.20;99.90;;;;;;5009809;28;20045;-61
2022/03/04 00:58:37;;;;;;;12.50;5.97;;;4.10;99.90;;;;;;5008869;28;20026;-60
2022/03/04 01:01:04;;;;;;;13.32;5.80;;;4.10;99.90;;;;;;5009256;28;20030;-61
2022/03/04 01:03:30;;;;;;;17.67;6.18;;;4.00;99.90;;;;;;5008161;28;20053;-61
2022/03/04 01:05:56;;;;;;;17.40;7.47;;;4.00;99.90;;;;;;5009626;28;20841;-63
2022/03/04 01:08:21;;;;;;;14.00;6.55;;;3.90;99.90;;;;;;5009843;28;20129;-61
2022/03/04 01:10:47;;;;;;;12.32;5.00;;;3.90;99.90;;;;;;5009576;28;20113;-61
2022/03/04 01:13:13;;;;;;;18.13;6.93;;;3.90;99.90;;;;;;5008753;28;20069;-60
2022/03/04 01:15:39;;;;;;;14.63;5.78;;;3.90;99.90;;;;;;5009850;28;20121;-61
2022/03/04 01:18:04;;;;;;;14.98;6.43;;;3.90;99.90;;;;;;5009321;28;20448;-62
2022/03/04 01:20:31;;;;;;;18.65;6.63;;;3.90;99.90;;;;;;5008635;28;20029;-60
2022/03/04 01:22:57;;;;;;;19.88;6.15;;;3.80;99.90;;;;;;5009205;28;20030;-61
2022/03/04 01:25:23;;;;;;;14.75;6.15;;;3.80;99.90;;;;;;5010210;28;20053;-61
2022/03/04 01:27:49;;;;;;;20.13;6.70;;;3.80;99.90;;;;;;5010011;28;20041;-61
2022/03/04 01:30:14;;;;;;;15.18;6.72;;;3.80;99.90;;;;;;5008941;28;20034;-60
2022/03/04 01:32:40;;;;;;;16.40;6.13;;;3.80;99.90;;;;;;5009472;28;20080;-61
2022/03/04 01:35:08;;;;;;;18.30;6.75;;;3.80;99.90;;;;;;5009080;28;20041;-60
2022/03/04 01:37:34;;;;;;;15.20;6.47;;;3.80;99.90;;;;;;5009760;28;20085;-62
2022/03/04 01:39:59;;;;;;;16.15;6.85;;;3.70;99.90;;;;;;5008603;28;20045;-60
2022/03/04 01:42:25;;;;;;;14.45;6.43;;;3.70;99.90;;;;;;5007278;28;20037;-61
2022/03/04 01:44:50;;;;;;;18.75;6.68;;;3.60;99.90;;;;;;5007537;28;20125;-60
2022/03/04 01:47:16;;;;;;;16.17;6.55;;;3.70;99.90;;;;;;5008980;28;20061;-61
2022/03/04 01:49:41;;;;;;;15.35;6.82;;;3.60;99.90;;;;;;5008019;28;20061;-61
2022/03/04 01:52:08;;;;;;;16.38;6.35;;;3.60;99.90;;;;;;5008224;28;20037;-61
2022/03/04 01:54:34;;;;;;;20.80;6.43;;;3.60;99.90;;;;;;5009346;28;20041;-60
2022/03/04 01:57:00;;;;;;;18.17;6.63;;;3.60;99.90;;;;;;5009009;28;20494;-62
2022/03/04 01:59:27;;;;;;;18.35;6.15;;;3.50;99.90;;;;;;5009080;28;20072;-63
2022/03/04 02:01:53;;;;;;;15.98;6.90;;;3.50;99.90;;;;;;5009265;28;20041;-60
2022/03/04 02:04:23;;;;;;;15.90;7.30;;;3.50;99.90;;;;;;5012690;28;20048;-61
2022/03/04 02:06:50;;;;;;;14.63;6.65;;;3.40;99.90;;;;;;5011749;28;20088;-62
2022/03/04 02:09:16;;;;;;;16.83;7.00;;;3.40;99.90;;;;;;5012472;28;20507;-60
2022/03/04 02:11:43;;;;;;;18.77;7.30;;;3.40;99.90;;;;;;5012497;28;20030;-61
2022/03/04 02:14:09;;;;;;;19.58;6.75;;;3.40;99.90;;;;;;5012560;28;20397;-60
2022/03/04 02:16:46;;;;;;;17.35;6.95;;;3.30;99.90;;;;;;5012935;28;20022;-62
2022/03/04 02:19:12;;;;;;;15.40;6.13;;;3.30;99.90;;;;;;5011141;28;20038;-61
2022/03/04 02:21:50;;;;;;;15.88;6.47;;;3.20;99.90;;;;;;5012472;28;20482;-60
2022/03/04 02:24:17;;;;;;;15.48;6.07;;;3.30;99.90;;;;;;5012255;28;20126;-60
2022/03/04 02:26:43;;;;;;;19.90;7.28;;;3.20;99.90;;;;;;5011549;28;20026;-60
2022/03/04 02:29:08;;;;;;;12.82;5.90;;;3.20;99.90;;;;;;5012228;28;20053;-61
2022/03/04 02:31:34;;;;;;;13.93;6.28;;;3.20;99.90;;;;;;5012362;28;20045;-61
2022/03/04 02:33:59;;;;;;;16.65;6.05;;;3.10;99.90;;;;;;5012207;28;20029;-61
2022/03/04 02:36:25;;;;;;;18.15;6.55;;;3.10;99.90;;;;;;5008616;28;20045;-61
2022/03/04 02:38:50;;;;;;;13.38;5.97;;;3.00;99.90;;;;;;5012552;28;20088;-60
2022/03/04 02:41:16;;;;;;;16.25;6.93;;;3.00;99.90;;;;;;5011529;28;20570;-61
2022/03/04 02:43:42;;;;;;;16.55;6.80;;;2.90;99.90;;;;;;5012590;28;20425;-62
2022/03/04 02:46:08;;;;;;;15.55;5.90;;;2.90;99.90;;;;;;5012216;28;20057;-62
2022/03/04 02:48:34;;;;;;;19.13;6.90;;;2.90;99.90;;;;;;5012374;28;20038;-60
2022/03/04 02:50:59;;;;;;;16.10;6.68;;;2.90;99.90;;;;;;5011436;28;20022;-60
2022/03/04 02:53:25;;;;;;;19.15;6.38;;;3.00;99.90;;;;;;5012435;28;20041;-61
2022/03/04 02:55:50;;;;;;;16.70;7.03;;;2.90;99.90;;;;;;5011000;28;20038;-60
2022/03/04 02:58:16;;;;;;;20.25;6.32;;;2.90;99.90;;;;;;5011861;28;20038;-60
2022/03/04 03:00:42;;;;;;;15.55;6.53;;;2.90;99.90;;;;;;5011750;28;20069;-60
2022/03/04 03:03:07;;;;;;;15.38;7.07;;;2.90;99.90;;;;;;5011845;28;20504;-61
2022/03/04 03:05:33;;;;;;;18.67;7.45;;;2.80;99.90;;;;;;5010181;28;20448;-61
2022/03/04 03:07:58;;;;;;;20.63;6.72;;;2.70;99.90;;;;;;5011889;28;20084;-60
2022/03/04 03:10:24;;;;;;;20.17;7.10;;;2.70;99.90;;;;;;5010409;28;20034;-61
2022/03/04 03:12:50;;;;;;;18.40;6.97;;;2.70;99.90;;;;;;5011347;28;20046;-61
2022/03/04 03:15:15;;;;;;;21.40;6.43;;;2.60;99.90;;;;;;5010785;28;20054;-61
2022/03/04 03:17:41;;;;;;;17.80;6.40;;;2.60;99.90;;;;;;5011752;28;20121;-61
2022/03/04 03:20:08;;;;;;;17.17;6.60;;;2.60;99.90;;;;;;5010995;28;20034;-61
2022/03/04 03:22:33;;;;;;;16.60;6.35;;;2.60;99.90;;;;;;5011829;28;20120;-61
2022/03/04 03:24:59;;;;;;;17.85;7.13;;;2.60;99.90;;;;;;5011421;28;20113;-61
2022/03/04 03:27:25;;;;;;;17.92;6.40;;;2.60;99.90;;;;;;5012073;28;20037;-60
2022/03/04 03:29:50;;;;;;;15.70;6.57;;;2.60;99.90;;;;;;5011178;28;20057;-61
2022/03/04 03:32:16;;;;;;;18.17;6.72;;;2.60;99.90;;;;;;5011543;28;20068;-60
2022/03/04 03:34:42;;;;;;;16.02;6.90;;;2.60;99.90;;;;;;5012208;28;20614;-60
2022/03/04 03:37:09;;;;;;;20.70;7.20;;;2.60;99.90;;;;;;5011732;28;20026;-65
2022/03/04 03:39:36;;;;;;;15.80;6.85;;;2.60;99.90;;;;;;5011253;28;20045;-60
2022/03/04 03:42:03;;;;;;;17.70;7.10;;;2.60;99.90;;;;;;5015447;28;20036;-61
2022/03/04 03:44:29;;;;;;;19.73;6.95;;;2.60;99.90;;;;;;5014121;28;20072;-62
2022/03/04 03:46:55;;;;;;;15.63;6.53;;;2.50;99.90;;;;;;5010115;28;20394;-61
2022/03/04 03:49:21;;;;;;;16.83;7.47;;;2.50;99.90;;;;;;5005789;28;20034;-61
2022/03/04 03:51:47;;;;;;;18.42;7.28;;;2.50;99.90;;;;;;5010694;28;20038;-62
2022/03/04 03:54:12;;;;;;;14.73;6.13;;;2.40;99.90;;;;;;5010811;28;20108;-61
2022/03/04 03:56:38;;;;;;;20.38;7.95;;;2.50;99.90;;;;;;5010943;28;20034;-60
2022/03/04 03:59:03;;;;;;;17.38;6.10;;;2.40;99.90;;;;;;5010662;28;20121;-60
2022/03/04 04:01:29;;;;;;;17.75;6.43;;;2.40;99.90;;;;;;5010581;28;20668;-60
2022/03/04 04:03:55;;;;;;;19.40;6.90;;;2.50;99.90;;;;;;5011266;28;20034;-60
2022/03/04 04:06:21;;;;;;;16.38;5.80;;;2.40;99.90;;;;;;5010767;28;20121;-60
2022/03/04 04:08:47;;;;;;;16.05;6.88;;;2.40;99.90;;;;;;5011164;28;20026;-61
2022/03/04 04:11:13;;;;;;;17.45;7.47;;;2.40;99.90;;;;;;5009628;28;20026;-63
2022/03/04 04:13:38;;;;;;;20.33;7.28;;;2.40;99.90;;;;;;5010966;28;20061;-61
2022/03/04 04:16:04;;;;;;;17.25;7.28;;;2.40;99.90;;;;;;5009069;28;20034;-62
2022/03/04 04:18:30;;;;;;;20.75;7.63;;;2.40;99.90;;;;;;5010773;28;20030;-61
2022/03/04 04:20:55;;;;;;;18.33;7.40;;;2.40;99.90;;;;;;5010139;28;20041;-60
2022/03/04 04:23:21;;;;;;;16.42;5.85;;;2.40;99.90;;;;;;5010608;28;20034;-61
2022/03/04 04:25:47;;;;;;;17.13;7.50;;;2.50;99.90;;;;;;5010355;28;20057;-63
2022/03/04 04:28:13;;;;;;;17.08;6.70;;;2.50;99.90;;;;;;5010225;28;20041;-63
2022/03/04 04:30:38;;;;;;;16.17;7.55;;;2.50;99.90;;;;;;5010235;28;20026;-59
2022/03/04 04:33:04;;;;;;;18.73;7.03;;;2.40;99.90;;;;;;5009885;28;20042;-59
2022/03/04 04:35:29;;;;;;;18.95;7.55;;;2.40;99.90;;;;;;5010388;28;20040;-60
2022/03/04 04:37:55;;;;;;;20.52;7.30;;;2.30;99.90;;;;;;5010584;28;20030;-61
2022/03/04 04:40:20;;;;;;;13.25;5.90;;;2.30;99.90;;;;;;5009306;28;20546;-61
2022/03/04 04:42:46;;;;;;;19.75;6.90;;;2.30;99.90;;;;;;5013699;28;20041;-61
2022/03/04 04:45:12;;;;;;;15.82;6.53;;;2.30;99.90;;;;;;5009792;28;20033;-61
2022/03/04 04:47:37;;;;;;;18.15;6.85;;;2.30;99.90;;;;;;5010149;28;20137;-61
2022/03/04 04:50:04;;;;;;;18.80;7.45;;;2.20;99.90;;;;;;5009525;28;20029;-61
2022/03/04 04:52:30;;;;;;;16.73;6.40;;;2.20;99.90;;;;;;5010130;28;20053;-60
2022/03/04 04:54:56;;;;;;;19.55;6.72;;;2.20;99.90;;;;;;5008191;28;20037;-65
2022/03/04 04:57:21;;;;;;;16.40;6.70;;;2.20;99.90;;;;;;5010065;28;20654;-60
2022/03/04 04:59:47;;;;;;;17.15;7.03;;;2.20;99.90;;;;;;5010094;28;20058;-61
2022/03/04 05:02:12;;;;;;;17.17;6.63;;;2.20;99.90;;;;;;5009385;28;20021;-60
2022/03/04 05:04:38;;;;;;;16.10;7.07;;;2.20;99.90;;;;;;5009811;28;20096;-60
2022/03/04 05:07:04;;;;;;;18.83;6.68;;;2.20;99.90;;;;;;5008225;28;20030;-60
2022/03/04 05:09:29;;;;;;;18.10;7.57;;;2.20;99.90;;;;;;5009716;28;20045;-62
2022/03/04 05:11:55;;;;;;;17.25;6.32;;;2.30;99.90;;;;;;5008752;28;20114;-60
2022/03/04 05:14:21;;;;;;;17.50;7.65;;;2.40;99.90;;;;;;5009498;28;20030;-61
2022/03/04 05:16:46;;;;;;;16.73;6.70;;;2.30;99.90;;;;;;5009824;28;20026;-61
2022/03/04 05:19:12;;;;;;;16.80;7.32;;;2.30;99.90;;;;;;5009555;28;20398;-62
2022/03/04 05:21:38;;;;;;;18.42;6.78;;;2.20;99.90;;;;;;5009287;28;20112;-61
2022/03/04 05:24:06;;;;;;;17.67;6.65;;;2.30;99.90;;;;;;5007931;28;20034;-62
2022/03/04 05:26:34;;;;;;;16.60;6.93;;;2.20;99.90;;;;;;5009607;28;20398;-60
2022/03/04 05:29:01;;;;;;;25.98;7.25;;;2.30;99.90;;;;;;5008056;28;20547;-59
2022/03/04 05:31:27;;;;;;;17.15;6.68;;;2.30;99.90;;;;;;5009427;28;20068;-61
2022/03/04 05:33:54;;;;;;;18.58;6.93;;;2.20;99.90;;;;;;5009800;28;20026;-62
2022/03/04 05:36:20;;;;;;;15.40;7.10;;;2.20;99.90;;;;;;5008766;28;20034;-61
2022/03/04 05:38:48;;;;;;;19.33;7.13;;;2.10;99.90;;;;;;5015493;28;20053;-61
2022/03/04 05:41:15;;;;;;;17.23;6.63;;;2.10;99.90;;;;;;5015283;28;20061;-61
2022/03/04 05:43:41;;;;;;;17.70;6.63;;;2.10;99.90;;;;;;5018811;28;20077;-61
2022/03/04 05:46:07;;;;;;;17.38;6.53;;;2.10;99.90;;;;;;5015694;28;20125;-61
2022/03/04 05:48:32;;;;;;;21.77;7.32;;;2.10;99.90;;;;;;5016067;28;20120;-61
2022/03/04 05:50:58;;;;;;;18.17;6.45;;;2.10;99.90;;;;;;5015145;28;20037;-62
2022/03/04 05:53:23;;;;;;;16.80;6.18;;;2.00;99.90;;;;;;5015742;28;20068;-61
2022/03/04 05:55:49;;;;;;;19.58;8.02;;;2.10;99.90;;;;;;5015819;28;20109;-61
2022/03/04 05:58:15;;;;;;;19.35;6.75;;;2.10;99.90;;;;;;5015551;28;20036;-61
2022/03/04 06:00:40;;;;;;;18.88;6.80;;;2.10;99.90;;;;;;5014509;28;20029;-60
2022/03/04 06:03:07;;;;;;;21.20;6.78;;;2.00;99.90;;;;;;5015767;28;20057;-60
2022/03/04 06:05:33;;;;;;;16.13;7.00;;;2.00;99.90;;;;;;5015603;28;20034;-61
2022/03/04 06:07:59;;;;;;;18.95;7.25;;;2.00;99.90;;;;;;5015243;28;20436;-60
2022/03/04 06:10:25;;;;;;;19.75;7.13;;;2.00;99.90;;;;;;5015621;28;20124;-60
2022/03/04 06:12:50;;;;;;;19.33;6.07;;;2.00;99.90;;;;;;5015302;28;20042;-60
2022/03/04 06:15:16;;;;;;;18.65;6.45;;;2.00;99.90;;;;;;5015492;28;20038;-61
2022/03/04 06:17:46;;;;;;;15.52;7.47;;;1.90;99.90;;;;;;5011787;28;20038;-62
2022/03/04 06:20:12;;;;;;;20.17;7.68;;;1.90;99.90;;;;;;5011162;28;20037;-61
2022/03/04 06:22:37;;;;;;;18.13;7.15;;;1.90;99.90;;;;;;5015539;28;20038;-61
2022/03/04 06:25:04;;;;;;;22.90;7.85;;;1.90;99.90;;;;;;5015229;28;20030;-60
2022/03/04 06:27:30;;;;;;;17.58;7.40;;;2.00;99.90;;;;;;5015791;28;20033;-60
2022/03/04 06:29:56;;;;;;;22.17;7.07;;;1.90;99.90;;;;;;5013787;28;20165;-60
2022/03/04 06:32:21;;;;;;;16.95;7.30;;;2.00;99.90;;;;;;5013734;28;20092;-61
2022/03/04 06:34:47;;;;;;;20.67;7.55;;;1.90;99.90;;;;;;5014336;28;20050;-63
2022/03/04 06:37:12;;;;;;;20.15;7.30;;;1.90;99.90;;;;;;5015266;28;20081;-61
2022/03/04 06:39:39;;;;;;;20.92;7.43;;;1.90;99.90;;;;;;5015660;28;20038;-60
2022/03/04 06:42:05;;;;;;;19.52;8.43;;;1.90;99.90;;;;;;5016362;28;20041;-61
2022/03/04 06:44:30;;;;;;;21.05;7.55;;;1.80;99.90;;;;;;5016288;28;20044;-60
2022/03/04 06:46:56;;;;;;;20.35;7.60;;;1.90;99.90;;;;;;5015385;28;20030;-64
2022/03/04 06:49:22;;;;;;;18.92;7.20;;;1.90;99.90;;;;;;5012666;28;20117;-60
2022/03/04 06:51:47;;;;;;;15.77;7.03;;;1.90;99.90;;;;;;5012023;28;20045;-60
2022/03/04 06:54:13;;;;;;;16.25;5.90;;;1.80;99.90;;;;;;5012027;28;20084;-63
2022/03/04 06:56:39;;;;;;;20.02;7.18;;;1.80;99.90;;;;;;5010890;28;20109;-61
2022/03/04 06:59:05;;;;;;;21.08;7.82;;;1.90;99.90;;;;;;5011504;28;20050;-61
2022/03/04 07:01:30;;;;;;;22.95;7.05;;;1.90;99.90;;;;;;5011902;28;20117;-60
2022/03/04 07:03:56;;;;;;;21.92;7.80;;;1.90;99.90;;;;;;5012047;28;20728;-60
2022/03/04 07:06:21;;;;;;;26.23;7.40;;;2.00;99.90;;;;;;5010529;28;20030;-62
2022/03/04 07:08:47;;;;;;;20.52;8.15;;;1.90;99.90;;;;;;5012164;28;20121;-61
2022/03/04 07:11:13;;;;;;;20.45;8.15;;;2.00;99.90;;;;;;5011278;28;20401;-61
2022/03/04 07:13:38;;;;;;;22.92;8.55;;;2.10;99.90;;;;;;5011872;28;20038;-60
2022/03/04 07:16:05;;;;;;;29.05;9.10;;;2.10;99.90;;;;;;5010260;28;20044;-62
2022/03/04 07:18:31;;;;;;;19.77;7.70;;;2.10;99.90;;;;;;5011990;28;20520;-61
2022/03/04 07:20:59;;;;;;;20.73;8.18;;;2.10;99.90;;;;;;5011668;28;20540;-66
2022/03/04 07:23:25;;;;;;;15.65;6.65;;;2.20;99.90;;;;;;5011566;28;20394;-60
2022/03/04 07:25:51;;;;;;;20.15;7.20;;;2.20;99.90;;;;;;5011601;28;20026;-60
2022/03/04 07:28:17;;;;;;;20.33;7.35;;;2.40;99.90;;;;;;5011188;28;20087;-61
2022/03/04 07:30:43;;;;;;;16.42;7.28;;;2.50;99.90;;;;;;5010955;28;20390;-62
2022/03/04 07:33:09;;;;;;;18.83;7.22;;;2.60;99.90;;;;;;5010411;28;20044;-62
2022/03/04 07:35:36;;;;;;;21.77;7.22;;;2.60;99.90;;;;;;5011520;28;20396;-62
2022/03/04 07:38:02;;;;;;;18.15;7.00;;;2.80;99.90;;;;;;5011084;28;20064;-62
2022/03/04 07:40:28;;;;;;;19.63;7.70;;;3.00;99.90;;;;;;5010781;28;20072;-62
2022/03/04 07:42:53;;;;;;;20.02;7.60;;;3.10;99.90;;;;;;5013230;28;20119;-62
2022/03/04 07:45:19;;;;;;;18.40;6.43;;;3.20;99.90;;;;;;5011125;28;20038;-61
2022/03/04 07:47:45;;;;;;;16.70;7.18;;;3.30;99.90;;;;;;5011592;28;20544;-61
2022/03/04 07:50:13;;;;;;;16.05;7.20;;;3.70;99.90;;;;;;5009410;28;20090;-60
2022/03/04 07:52:40;;;;;;;17.77;7.20;;;4.00;99.90;;;;;;5007812;28;20497;-61
2022/03/04 07:55:09;;;;;;;16.77;7.72;;;4.20;99.90;;;;;;5010799;28;20057;-60
2022/03/04 07:57:35;;;;;;;15.52;6.65;;;4.40;99.90;;;;;;5011158;28;20044;-62
2022/03/04 08:00:01;;;;;;;20.85;7.72;;;4.70;99.90;;;;;;5007568;28;20057;-62
2022/03/04 08:02:26;;;;;;;17.63;7.07;;;4.70;99.90;;;;;;5009835;28;20185;-60
2022/03/04 08:04:52;;;;;;;20.27;8.07;;;4.70;99.90;;;;;;5009049;28;20116;-62
2022/03/04 08:07:18;;;;;;;19.15;7.63;;;4.70;99.90;;;;;;5010401;28;20037;-62
2022/03/04 08:09:44;;;;;;;16.98;7.30;;;5.10;99.90;;;;;;5009514;28;20493;-61
2022/03/04 08:12:11;;;;;;;17.77;6.93;;;5.30;99.90;;;;;;5009488;28;20058;-61
2022/03/04 08:14:36;;;;;;;20.45;7.68;;;5.30;99.90;;;;;;5010302;28;20053;-61
2022/03/04 08:17:02;;;;;;;18.05;6.50;;;5.20;99.90;;;;;;5009355;28;20108;-62
2022/03/04 08:19:28;;;;;;;21.08;6.78;;;5.20;99.90;;;;;;5010253;28;20547;-62
2022/03/04 08:21:53;;;;;;;15.23;6.90;;;5.20;99.90;;;;;;5008603;28;20109;-61
2022/03/04 08:24:19;;;;;;;18.58;6.70;;;5.10;99.90;;;;;;5009938;28;20037;-61
2022/03/04 08:26:44;;;;;;;17.15;6.80;;;5.10;99.90;;;;;;5009035;28;20482;-61
2022/03/04 08:29:11;;;;;;;16.40;6.72;;;5.20;99.90;;;;;;5010151;28;20058;-61
2022/03/04 08:31:37;;;;;;;14.50;6.70;;;5.20;99.90;;;;;;5003527;28;20037;-61
2022/03/04 08:34:03;;;;;;;16.95;6.65;;;5.20;99.90;;;;;;5009751;28;20041;-60
2022/03/04 08:36:29;;;;;;;15.48;6.47;;;5.20;99.90;;;;;;5010046;28;20034;-60
2022/03/04 08:38:54;;;;;;;16.60;7.85;;;5.30;99.90;;;;;;5009020;28;20032;-60
2022/03/04 08:41:20;;;;;;;14.85;6.57;;;5.40;99.90;;;;;;5008256;28;20062;-61
2022/03/04 08:43:46;;;;;;;16.60;6.88;;;5.50;99.90;;;;;;5008565;28;20040;-61
2022/03/04 08:46:13;;;;;;;14.95;5.97;;;5.50;99.90;;;;;;5008725;28;20092;-61
2022/03/04 08:48:40;;;;;;;15.27;6.80;;;5.60;99.90;;;;;;5009724;28;20112;-62
2022/03/04 08:51:05;;;;;;;16.98;5.88;;;5.70;99.90;;;;;;5004488;28;20054;-61
2022/03/04 08:53:31;;;;;;;17.25;6.18;;;5.80;99.90;;;;;;5008071;28;20061;-60
2022/03/04 08:55:56;;;;;;;16.35;6.90;;;5.90;99.90;;;;;;5007255;28;20034;-64
2022/03/04 08:58:22;;;;;;;14.07;5.97;;;6.00;99.90;;;;;;5005612;28;20045;-61
2022/03/04 09:00:48;;;;;;;15.02;6.32;;;6.10;99.90;;;;;;5007382;28;20040;-62
2022/03/04 09:03:13;;;;;;;16.05;5.88;;;6.20;99.90;;;;;;5006858;28;20625;-60
2022/03/04 09:05:39;;;;;;;16.30;6.43;;;6.20;99.90;;;;;;5007891;28;20045;-62
2022/03/04 09:08:04;;;;;;;18.52;6.40;;;6.20;99.90;;;;;;5005996;28;20121;-60
2022/03/04 09:10:30;;;;;;;20.67;7.05;;;6.30;99.90;;;;;;5007108;28;20144;-61
2022/03/04 09:12:56;;;;;;;15.88;6.35;;;6.40;99.90;;;;;;5006489;28;20048;-61
2022/03/04 09:15:22;;;;;;;23.45;5.78;;;6.50;99.90;;;;;;5006219;28;20044;-61
2022/03/04 09:17:47;;;;;;;13.82;6.40;;;6.60;99.90;;;;;;5007432;28;20030;-62
2022/03/04 09:20:19;;;;;;;16.52;6.65;;;6.60;99.90;;;;;;5006203;28;20091;-60
2022/03/04 09:22:45;;;;;;;18.02;6.05;;;6.60;99.60;;;;;;5008562;28;20092;-60
2022/03/04 09:25:12;;;;;;;13.75;6.03;;;6.70;99.80;;;;;;5007273;28;21301;-61
2022/03/04 09:27:37;;;;;;;19.20;5.57;;;6.70;99.40;;;;;;5008050;28;20037;-60
2022/03/04 09:30:04;;;;;;;14.80;6.13;;;6.80;99.50;;;;;;5006063;28;20482;-60
2022/03/04 09:32:30;;;;;;;17.05;5.97;;;6.90;99.30;;;;;;5006233;28;20162;-62
2022/03/04 09:34:55;;;;;;;19.30;6.05;;;6.90;99.20;;;;;;5005520;28;20125;-62
2022/03/04 09:37:21;;;;;;;15.20;5.65;;;7.00;99.90;;;;;;5007229;28;20038;-62
2022/03/04 09:39:47;;;;;;;15.00;6.18;;;7.20;98.60;;;;;;5006718;28;20096;-62
2022/03/04 09:42:12;;;;;;;15.43;6.40;;;7.20;98.00;;;;;;5006925;28;20088;-61
2022/03/04 09:44:40;;;;;;;16.27;6.85;;;7.30;99.10;;;;;;5006568;28;20044;-61
2022/03/04 09:47:07;;;;;;;15.70;5.85;;;7.40;97.60;;;;;;5007467;28;20022;-63
2022/03/04 09:49:35;;;;;;;13.57;5.63;;;7.60;98.20;;;;;;5007949;28;20124;-61
2022/03/04 09:52:01;;;;;;;20.73;5.50;;;7.70;96.70;;;;;;5005810;28;20041;-61
2022/03/04 09:54:28;;;;;;;15.07;6.40;;;7.70;96.10;;;;;;5007922;28;20208;-61
2022/03/04 09:56:55;;;;;;;16.05;6.25;;;7.80;95.30;;;;;;5006296;28;20036;-61
2022/03/04 09:59:20;;;;;;;10.73;5.07;;;7.80;94.00;;;;;;5006832;28;20030;-62
2022/03/04 10:01:47;;;;;;;12.40;5.82;;;7.80;94.40;;;;;;5007314;28;20034;-61
2022/03/04 10:04:13;;;;;;;12.63;6.25;;;7.90;93.30;;;;;;5007383;28;20788;-62
2022/03/04 10:06:39;;;;;;;11.80;5.10;;;7.90;93.60;;;;;;5007575;28;20041;-62
2022/03/04 10:09:05;;;;;;;16.33;5.85;;;7.70;93.50;;;;;;5007254;28;20041;-60
2022/03/04 10:11:33;;;;;;;19.17;5.90;;;7.80;94.30;;;;;;5007221;28;20103;-61
2022/03/04 10:14:08;;;;;;;12.05;5.07;;;7.90;95.00;;;;;;5006156;28;20045;-61
2022/03/04 10:16:38;;;;;;;12.73;5.97;;;7.90;94.30;;;;;;5006959;28;20026;-61
2022/03/04 10:19:04;;;;;;;;;;;7.80;94.50;;;;;;5007689;28;20045;-60
2022/03/04 10:21:52;;;;;;;16.92;6.70;;;7.70;95.00;;;;;;5006675;28;19921;-62
2022/03/04 10:24:29;;;;;;;13.68;5.75;;;7.70;94.80;;;;;;5007112;28;20046;-62
2022/03/04 10:27:15;;;;;;;16.02;6.60;;;7.80;95.70;;;;;;5011621;28;20064;-60
2022/03/04 10:29:46;;;;;;;16.38;5.93;;;7.90;95.50;;;;;;5009068;28;20034;-63
2022/03/04 10:32:14;;;;;;;12.65;5.75;;;7.90;95.00;;;;;;5010406;28;20048;-61
2022/03/04 10:34:48;;;;;;;14.73;6.55;;;7.80;95.00;;;;;;5011063;28;20114;-61
2022/03/04 10:37:16;;;;;;;17.73;6.13;;;7.80;95.80;;;;;;5009769;28;20044;-61
2022/03/04 10:39:57;;;;;;;15.55;6.53;;;7.80;95.60;;;;;;5010549;28;20025;-63
2022/03/04 10:42:50;;;;;;;15.48;6.50;;;7.90;95.80;;;;;;5010009;28;20064;-61
2022/03/04 10:45:26;;;;;;;14.45;6.38;;;8.00;95.10;;;;;;5012767;28;20030;-62
2022/03/04 10:48:02;;;;;;;13.18;5.07;;;8.00;95.90;;;;;;5016272;28;20034;-62
2022/03/04 10:50:33;;;;;;;13.40;5.38;;;8.10;95.70;;;;;;5011067;28;20030;-63
2022/03/04 10:53:05;;;;;;;14.13;5.93;;;8.20;96.80;;;;;;5009697;28;20034;-60
2022/03/04 10:55:32;;;;;;;18.00;6.28;;;8.30;95.70;;;;;;5010131;28;20048;-61
2022/03/04 10:57:59;;;;;;;15.55;5.97;;;8.40;95.50;;;;;;5006917;28;20041;-63
2022/03/04 11:00:37;;;;;;;14.57;7.13;;;8.40;95.80;;;;;;5008852;28;20080;-62
2022/03/04 11:03:05;;;;;;;16.63;6.82;;;8.50;94.30;;;;;;5009391;28;20034;-62
2022/03/04 11:05:30;;;;;;;16.08;6.60;;;8.40;94.80;;;;;;5010584;28;20430;-62
2022/03/04 11:07:57;;;;;;;15.30;6.65;;;8.40;94.90;;;;;;5010639;28;20044;-61
2022/03/04 11:10:23;;;;;;;14.85;6.40;;;8.40;95.10;;;;;;5010036;28;20038;-62
2022/03/04 11:12:55;;;;;;;18.98;6.93;;;8.50;94.60;;;;;;5013885;28;20037;-63
2022/03/04 11:15:23;;;;;;;16.50;6.15;;;8.60;93.70;;;;;;5010178;28;20044;-62
2022/03/04 11:17:50;;;;;;;15.35;6.30;;;8.70;93.50;;;;;;5012192;28;20057;-61
2022/03/04 11:20:16;;;;;;;12.27;6.05;;;8.60;93.00;;;;;;5012628;28;20025;-61
2022/03/04 11:22:44;;;;;;;18.80;6.72;;;8.60;93.50;;;;;;5011749;28;20034;-62
2022/03/04 11:25:12;;;;;;;20.00;6.70;;;8.60;93.40;;;;;;5010981;28;20041;-61
2022/03/04 11:27:43;;;;;;;17.88;6.03;;;8.60;93.40;;;;;;5011941;28;20037;-61
2022/03/04 11:30:30;;;;;;;18.98;6.10;;;8.70;93.80;;;;;;5012719;28;20038;-61
2022/03/04 11:33:06;;;;;;;14.93;6.03;;;8.70;92.90;;;;;;5012773;28;20492;-61
2022/03/04 11:35:51;;;;;;;16.92;6.18;;;8.70;93.40;;;;;;5006914;28;20037;-62
2022/03/04 11:38:49;;;;;;;17.42;6.50;;;8.80;93.00;;;;;;5011489;28;20041;-61
2022/03/04 11:41:18;;;;;;;18.98;6.28;;;8.80;93.20;;;;;;5009133;28;20045;-62
2022/03/04 11:43:52;;;;;;;14.43;7.00;;;8.90;93.60;;;;;;5013233;28;20038;-62
2022/03/04 11:46:48;;;;;;;15.75;6.97;;;8.90;93.20;;;;;;5008782;28;20068;-60
2022/03/04 11:49:38;;;;;;;15.45;6.32;;;8.90;92.70;;;;;;5000727;28;20452;-61
2022/03/04 11:52:10;;;;;;;17.30;7.20;;;8.90;93.30;;;;;;5007978;28;20038;-62
2022/03/04 11:55:06;;;;;;;13.40;6.05;;;8.90;92.70;;;;;;5008597;28;20220;-61
2022/03/04 11:57:41;;;;;;;15.75;7.07;;;8.90;91.20;;;;;;5012100;28;20042;-61
2022/03/04 12:00:10;;;;;;;16.60;6.15;;;8.90;91.70;;;;;;5009702;28;20149;-62
2022/03/04 12:02:42;;;;;;;18.75;7.10;;;8.90;91.80;;;;;;5012654;28;20121;-61
2022/03/04 12:05:13;;;;;;;16.45;6.40;;;8.90;92.30;;;;;;5010140;28;20039;-60
2022/03/04 12:07:47;;;;;;;14.40;6.63;;;9.00;92.80;;;;;;5008021;28;20405;-61
2022/03/04 12:10:15;;;;;;;15.40;6.30;;;9.00;91.00;;;;;;5010375;28;20052;-62
2022/03/04 12:12:58;;;;;;;15.45;5.80;;;9.00;91.50;;;;;;5012843;28;20120;-60
2022/03/04 12:15:24;;;;;;;14.80;7.13;;;9.00;92.60;;;;;;5010588;28;20046;-61
2022/03/04 12:18:03;;;;;;;14.10;5.68;;;9.00;93.10;;;;;;5009664;28;20044;-61
2022/03/04 12:20:41;;;;;;;18.80;7.82;;;9.00;93.70;;;;;;5008672;28;20038;-61
2022/03/04 12:23:08;;;;;;;16.45;7.30;;;9.10;93.40;;;;;;5008373;28;20038;-61
2022/03/04 12:25:52;;;;;;;16.83;6.57;;;9.10;94.00;;;;;;5011850;28;20049;-61
2022/03/04 12:28:20;;;;;;;14.18;6.30;;;9.10;92.60;;;;;;5007296;28;20129;-63
2022/03/04 12:30:46;;;;;;;15.55;6.30;;;9.20;91.80;;;;;;5011174;28;20064;-60
2022/03/04 12:33:14;;;;;;;20.67;6.55;;;9.20;92.10;;;;;;5010870;28;20628;-62
2022/03/04 12:35:42;;;;;;;15.63;7.10;;;9.30;90.20;;;;;;5011657;28;20471;-61
2022/03/04 12:38:09;;;;;;;15.52;6.60;;;9.30;91.50;;;;;;5007391;28;20117;-60
2022/03/04 12:40:37;;;;;;;13.82;6.25;;;9.30;90.80;;;;;;5010793;28;20037;-62
2022/03/04 12:43:05;;;;;;;15.50;6.47;;;9.40;90.60;;;;;;5014492;28;20145;-62
2022/03/04 12:45:31;;;;;;;17.38;7.30;;;9.30;91.40;;;;;;5011687;28;20117;-61
2022/03/04 12:47:57;;;;;;;18.88;6.28;;;9.30;91.50;;;;;;5008389;28;20037;-61